Dunfermline, Illinois
Current Conditions -  °F | °C
As of 4:54 PM on Thursday 18 Dec 2014 (Local Time) from KPIA Reporting Station
Broken Clouds Broken Clouds  
Wind Chill: 29°   Ceiling: 12000
Heat Index: 29°   Visibility: 10mi
Dew Point: 18°   Wind: 3mph
Humidity: 64%   Direction: 20°NNE
Pressure: 30.26"   Gusts: NA
Location:  40.49°N, 90.03°W
Report Text: KPIA 182254Z 02003KT 10SM SCT048 BKN120 M02/M08 A3026 RMK AO2 SLP257 T10171078
Loading
Personal Weather Stations






























Interactive Weather Map New forecast layout! Learn more

10-Day Weather Forecast

Advertisements
Track Severe Weather on mobile